sensor_id;sensor_type;location;lat;lon;timestamp;temperature;humidity
59307;DHT22;47983;53.016;-2.260;2024-02-28T00:01:48;2.90;99.90
59307;DHT22;47983;53.016;-2.260;2024-02-28T00:04:15;2.90;99.90
59307;DHT22;47983;53.016;-2.260;2024-02-28T00:06:43;2.80;99.90
59307;DHT22;47983;53.016;-2.260;2024-02-28T00:09:11;2.80;99.90
59307;DHT22;47983;53.016;-2.260;2024-02-28T00:11:45;2.80;99.90
59307;DHT22;47983;53.016;-2.260;2024-02-28T00:14:13;2.80;99.90
59307;DHT22;47983;53.016;-2.260;2024-02-28T00:16:44;2.70;99.90
59307;DHT22;47983;53.016;-2.260;2024-02-28T00:19:12;2.70;99.90
59307;DHT22;47983;53.016;-2.260;2024-02-28T00:21:40;2.70;99.90
59307;DHT22;47983;53.016;-2.260;2024-02-28T00:24:09;2.60;99.90
59307;DHT22;47983;53.016;-2.260;2024-02-28T00:26:40;2.60;99.90
59307;DHT22;47983;53.016;-2.260;2024-02-28T00:29:07;2.60;99.90
59307;DHT22;47983;53.016;-2.260;2024-02-28T00:31:35;2.60;99.90
59307;DHT22;47983;53.016;-2.260;2024-02-28T00:34:03;2.60;99.90
59307;DHT22;47983;53.016;-2.260;2024-02-28T00:36:33;2.60;99.90
59307;DHT22;47983;53.016;-2.260;2024-02-28T00:39:21;2.50;99.90
59307;DHT22;47983;53.016;-2.260;2024-02-28T00:41:48;2.50;99.90
59307;DHT22;47983;53.016;-2.260;2024-02-28T00:44:16;2.50;99.90
59307;DHT22;47983;53.016;-2.260;2024-02-28T00:46:44;2.50;99.90
59307;DHT22;47983;53.016;-2.260;2024-02-28T00:49:11;2.40;99.90
59307;DHT22;47983;53.016;-2.260;2024-02-28T00:51:39;2.40;99.90
59307;DHT22;47983;53.016;-2.260;2024-02-28T00:54:07;2.40;99.90
59307;DHT22;47983;53.016;-2.260;2024-02-28T00:56:36;2.40;99.90
59307;DHT22;47983;53.016;-2.260;2024-02-28T00:59:03;2.40;99.90
59307;DHT22;47983;53.016;-2.260;2024-02-28T01:01:33;2.30;99.90
59307;DHT22;47983;53.016;-2.260;2024-02-28T01:04:01;2.30;99.90
59307;DHT22;47983;53.016;-2.260;2024-02-28T01:06:29;2.20;99.90
59307;DHT22;47983;53.016;-2.260;2024-02-28T01:08:57;2.20;99.90
59307;DHT22;47983;53.016;-2.260;2024-02-28T01:11:29;2.20;99.90
59307;DHT22;47983;53.016;-2.260;2024-02-28T01:13:57;2.20;99.90
59307;DHT22;47983;53.016;-2.260;2024-02-28T01:16:30;2.20;99.90
59307;DHT22;47983;53.016;-2.260;2024-02-28T01:18:58;2.20;99.90
59307;DHT22;47983;53.016;-2.260;2024-02-28T01:21:26;2.20;99.90
59307;DHT22;47983;53.016;-2.260;2024-02-28T01:23:54;2.20;99.90
59307;DHT22;47983;53.016;-2.260;2024-02-28T01:26:22;2.20;99.90
59307;DHT22;47983;53.016;-2.260;2024-02-28T01:28:49;2.20;99.90
59307;DHT22;47983;53.016;-2.260;2024-02-28T01:31:17;2.30;99.90
59307;DHT22;47983;53.016;-2.260;2024-02-28T01:33:44;2.20;99.90
59307;DHT22;47983;53.016;-2.260;2024-02-28T01:36:12;2.20;99.90
59307;DHT22;47983;53.016;-2.260;2024-02-28T01:38:40;2.30;99.90
59307;DHT22;47983;53.016;-2.260;2024-02-28T01:41:07;2.30;99.90
59307;DHT22;47983;53.016;-2.260;2024-02-28T01:43:35;2.30;99.90
59307;DHT22;47983;53.016;-2.260;2024-02-28T01:46:04;2.30;99.90
59307;DHT22;47983;53.016;-2.260;2024-02-28T01:48:33;2.30;99.90
59307;DHT22;47983;53.016;-2.260;2024-02-28T01:51:01;2.30;99.90
59307;DHT22;47983;53.016;-2.260;2024-02-28T01:53:29;2.20;99.90
59307;DHT22;47983;53.016;-2.260;2024-02-28T01:56:03;2.20;99.90
59307;DHT22;47983;53.016;-2.260;2024-02-28T01:58:30;2.20;99.90
59307;DHT22;47983;53.016;-2.260;2024-02-28T02:00:58;2.20;99.90
59307;DHT22;47983;53.016;-2.260;2024-02-28T02:03:26;2.20;99.90
59307;DHT22;47983;53.016;-2.260;2024-02-28T02:05:54;2.10;99.90
59307;DHT22;47983;53.016;-2.260;2024-02-28T02:08:22;2.10;99.90
59307;DHT22;47983;53.016;-2.260;2024-02-28T02:10:50;2.10;99.90
59307;DHT22;47983;53.016;-2.260;2024-02-28T02:13:18;2.10;99.90
59307;DHT22;47983;53.016;-2.260;2024-02-28T02:15:45;2.10;99.90
59307;DHT22;47983;53.016;-2.260;2024-02-28T02:18:13;2.00;99.90
59307;DHT22;47983;53.016;-2.260;2024-02-28T02:20:42;2.00;99.90
59307;DHT22;47983;53.016;-2.260;2024-02-28T02:23:11;2.00;99.90
59307;DHT22;47983;53.016;-2.260;2024-02-28T02:25:48;1.90;99.90
59307;DHT22;47983;53.016;-2.260;2024-02-28T02:28:16;1.90;99.90
59307;DHT22;47983;53.016;-2.260;2024-02-28T02:30:43;2.00;99.90
59307;DHT22;47983;53.016;-2.260;2024-02-28T02:33:12;2.00;99.90
59307;DHT22;47983;53.016;-2.260;2024-02-28T02:35:40;2.00;99.90
59307;DHT22;47983;53.016;-2.260;2024-02-28T02:38:07;2.00;99.90
59307;DHT22;47983;53.016;-2.260;2024-02-28T02:40:35;2.00;99.90
59307;DHT22;47983;53.016;-2.260;2024-02-28T02:43:03;2.10;99.90
59307;DHT22;47983;53.016;-2.260;2024-02-28T02:45:31;2.10;99.90
59307;DHT22;47983;53.016;-2.260;2024-02-28T02:47:59;2.10;99.90
59307;DHT22;47983;53.016;-2.260;2024-02-28T02:50:26;2.10;99.90
59307;DHT22;47983;53.016;-2.260;2024-02-28T02:52:54;2.00;99.90
59307;DHT22;47983;53.016;-2.260;2024-02-28T02:55:21;2.00;99.90
59307;DHT22;47983;53.016;-2.260;2024-02-28T02:57:49;1.90;99.90
59307;DHT22;47983;53.016;-2.260;2024-02-28T03:00:17;2.00;99.90
59307;DHT22;47983;53.016;-2.260;2024-02-28T03:02:44;1.90;99.90
59307;DHT22;47983;53.016;-2.260;2024-02-28T03:05:12;1.90;99.90
59307;DHT22;47983;53.016;-2.260;2024-02-28T03:07:40;1.90;99.90
59307;DHT22;47983;53.016;-2.260;2024-02-28T03:10:07;1.80;99.90
59307;DHT22;47983;53.016;-2.260;2024-02-28T03:12:36;1.90;99.90
59307;DHT22;47983;53.016;-2.260;2024-02-28T03:15:04;1.80;99.90
59307;DHT22;47983;53.016;-2.260;2024-02-28T03:17:32;1.90;99.90
59307;DHT22;47983;53.016;-2.260;2024-02-28T03:20:00;1.90;99.90
59307;DHT22;47983;53.016;-2.260;2024-02-28T03:22:27;1.90;99.90
59307;DHT22;47983;53.016;-2.260;2024-02-28T03:24:55;1.90;99.90
59307;DHT22;47983;53.016;-2.260;2024-02-28T03:27:23;1.90;99.90
59307;DHT22;47983;53.016;-2.260;2024-02-28T03:29:51;1.90;99.90
59307;DHT22;47983;53.016;-2.260;2024-02-28T03:32:19;1.90;99.90
59307;DHT22;47983;53.016;-2.260;2024-02-28T03:34:46;1.90;99.90
59307;DHT22;47983;53.016;-2.260;2024-02-28T03:37:14;1.90;99.90
59307;DHT22;47983;53.016;-2.260;2024-02-28T03:39:41;1.90;99.90
59307;DHT22;47983;53.016;-2.260;2024-02-28T03:42:09;2.00;99.90
59307;DHT22;47983;53.016;-2.260;2024-02-28T03:44:36;2.00;99.90
59307;DHT22;47983;53.016;-2.260;2024-02-28T03:47:04;2.00;99.90
59307;DHT22;47983;53.016;-2.260;2024-02-28T03:49:32;2.00;99.90
59307;DHT22;47983;53.016;-2.260;2024-02-28T03:52:00;2.10;99.90
59307;DHT22;47983;53.016;-2.260;2024-02-28T03:54:28;2.10;99.90
59307;DHT22;47983;53.016;-2.260;2024-02-28T03:56:56;2.10;99.90
59307;DHT22;47983;53.016;-2.260;2024-02-28T03:59:25;2.10;99.90
59307;DHT22;47983;53.016;-2.260;2024-02-28T04:01:53;2.20;99.90
59307;DHT22;47983;53.016;-2.260;2024-02-28T04:04:21;2.20;99.90
59307;DHT22;47983;53.016;-2.260;2024-02-28T04:06:48;2.20;99.90
59307;DHT22;47983;53.016;-2.260;2024-02-28T04:09:16;2.20;99.90
59307;DHT22;47983;53.016;-2.260;2024-02-28T04:11:43;2.20;99.90
59307;DHT22;47983;53.016;-2.260;2024-02-28T04:14:11;2.10;99.90
59307;DHT22;47983;53.016;-2.260;2024-02-28T04:16:42;2.10;99.90
59307;DHT22;47983;53.016;-2.260;2024-02-28T04:19:11;2.10;99.90
59307;DHT22;47983;53.016;-2.260;2024-02-28T04:21:39;2.10;99.90
59307;DHT22;47983;53.016;-2.260;2024-02-28T04:24:07;2.10;99.90
59307;DHT22;47983;53.016;-2.260;2024-02-28T04:26:35;2.10;99.90
59307;DHT22;47983;53.016;-2.260;2024-02-28T04:29:02;2.10;99.90
59307;DHT22;47983;53.016;-2.260;2024-02-28T04:31:37;2.10;99.90
59307;DHT22;47983;53.016;-2.260;2024-02-28T04:34:05;2.10;99.90
59307;DHT22;47983;53.016;-2.260;2024-02-28T04:36:33;2.10;99.90
59307;DHT22;47983;53.016;-2.260;2024-02-28T04:39:00;2.10;99.90
59307;DHT22;47983;53.016;-2.260;2024-02-28T04:41:28;2.10;99.90
59307;DHT22;47983;53.016;-2.260;2024-02-28T04:43:56;2.10;99.90
59307;DHT22;47983;53.016;-2.260;2024-02-28T04:46:26;2.10;99.90
59307;DHT22;47983;53.016;-2.260;2024-02-28T04:48:54;2.10;99.90
59307;DHT22;47983;53.016;-2.260;2024-02-28T04:51:22;2.10;99.90
59307;DHT22;47983;53.016;-2.260;2024-02-28T04:53:49;2.10;99.90
59307;DHT22;47983;53.016;-2.260;2024-02-28T04:56:17;2.10;99.90
59307;DHT22;47983;53.016;-2.260;2024-02-28T04:58:45;2.10;99.90
59307;DHT22;47983;53.016;-2.260;2024-02-28T05:01:12;2.00;99.90
59307;DHT22;47983;53.016;-2.260;2024-02-28T05:03:41;2.10;99.90
59307;DHT22;47983;53.016;-2.260;2024-02-28T05:06:08;2.10;99.90
59307;DHT22;47983;53.016;-2.260;2024-02-28T05:08:37;2.10;99.90
59307;DHT22;47983;53.016;-2.260;2024-02-28T05:11:05;2.10;99.90
59307;DHT22;47983;53.016;-2.260;2024-02-28T05:13:33;2.20;99.90
59307;DHT22;47983;53.016;-2.260;2024-02-28T05:16:02;2.20;99.90
59307;DHT22;47983;53.016;-2.260;2024-02-28T05:18:30;2.20;99.90
59307;DHT22;47983;53.016;-2.260;2024-02-28T05:21:00;2.20;99.90
59307;DHT22;47983;53.016;-2.260;2024-02-28T05:23:28;2.20;99.90
59307;DHT22;47983;53.016;-2.260;2024-02-28T05:25:56;2.20;99.90
59307;DHT22;47983;53.016;-2.260;2024-02-28T05:28:24;2.20;99.90
59307;DHT22;47983;53.016;-2.260;2024-02-28T05:30:52;2.20;99.90
59307;DHT22;47983;53.016;-2.260;2024-02-28T05:33:20;2.20;99.90
59307;DHT22;47983;53.016;-2.260;2024-02-28T05:35:47;2.30;99.90
59307;DHT22;47983;53.016;-2.260;2024-02-28T05:38:15;2.30;99.90
59307;DHT22;47983;53.016;-2.260;2024-02-28T05:40:43;2.30;99.90
59307;DHT22;47983;53.016;-2.260;2024-02-28T05:43:10;2.30;99.90
59307;DHT22;47983;53.016;-2.260;2024-02-28T05:45:38;2.30;99.90
59307;DHT22;47983;53.016;-2.260;2024-02-28T05:48:06;2.30;99.90
59307;DHT22;47983;53.016;-2.260;2024-02-28T05:50:33;2.40;99.90
59307;DHT22;47983;53.016;-2.260;2024-02-28T05:53:01;2.40;99.90
59307;DHT22;47983;53.016;-2.260;2024-02-28T05:55:29;2.30;99.90
59307;DHT22;47983;53.016;-2.260;2024-02-28T05:57:57;2.40;99.90
59307;DHT22;47983;53.016;-2.260;2024-02-28T06:00:24;2.50;99.90
59307;DHT22;47983;53.016;-2.260;2024-02-28T06:02:52;2.50;99.90
59307;DHT22;47983;53.016;-2.260;2024-02-28T06:05:19;2.50;99.90
59307;DHT22;47983;53.016;-2.260;2024-02-28T06:07:50;2.50;99.90
59307;DHT22;47983;53.016;-2.260;2024-02-28T06:10:18;2.60;99.90
59307;DHT22;47983;53.016;-2.260;2024-02-28T06:12:46;2.60;99.90
59307;DHT22;47983;53.016;-2.260;2024-02-28T06:15:14;2.70;99.90
59307;DHT22;47983;53.016;-2.260;2024-02-28T06:17:43;2.70;99.90
59307;DHT22;47983;53.016;-2.260;2024-02-28T06:20:11;2.70;99.90
59307;DHT22;47983;53.016;-2.260;2024-02-28T06:22:39;2.70;99.90
59307;DHT22;47983;53.016;-2.260;2024-02-28T06:25:07;2.80;99.90
59307;DHT22;47983;53.016;-2.260;2024-02-28T06:27:41;2.80;99.90
59307;DHT22;47983;53.016;-2.260;2024-02-28T06:30:10;2.80;99.90
59307;DHT22;47983;53.016;-2.260;2024-02-28T06:32:38;2.80;99.90
59307;DHT22;47983;53.016;-2.260;2024-02-28T06:35:09;2.80;99.90
59307;DHT22;47983;53.016;-2.260;2024-02-28T06:37:36;2.80;99.90
59307;DHT22;47983;53.016;-2.260;2024-02-28T06:40:04;2.90;99.90
59307;DHT22;47983;53.016;-2.260;2024-02-28T06:42:32;2.90;99.90
59307;DHT22;47983;53.016;-2.260;2024-02-28T06:45:12;2.90;99.90
59307;DHT22;47983;53.016;-2.260;2024-02-28T06:47:42;2.90;99.90
59307;DHT22;47983;53.016;-2.260;2024-02-28T06:50:10;2.90;99.90
59307;DHT22;47983;53.016;-2.260;2024-02-28T06:52:38;2.90;99.90
59307;DHT22;47983;53.016;-2.260;2024-02-28T06:55:06;2.90;99.90
59307;DHT22;47983;53.016;-2.260;2024-02-28T06:57:37;2.90;99.90
59307;DHT22;47983;53.016;-2.260;2024-02-28T07:00:05;2.90;99.90
59307;DHT22;47983;53.016;-2.260;2024-02-28T07:02:35;2.90;99.90
59307;DHT22;47983;53.016;-2.260;2024-02-28T07:05:03;2.90;99.90
59307;DHT22;47983;53.016;-2.260;2024-02-28T07:07:34;2.90;99.90
59307;DHT22;47983;53.016;-2.260;2024-02-28T07:10:02;2.90;99.90
59307;DHT22;47983;53.016;-2.260;2024-02-28T07:12:31;2.90;99.90
59307;DHT22;47983;53.016;-2.260;2024-02-28T07:14:59;2.90;99.90
59307;DHT22;47983;53.016;-2.260;2024-02-28T07:17:27;3.00;99.90
59307;DHT22;47983;53.016;-2.260;2024-02-28T07:19:54;3.00;99.90
59307;DHT22;47983;53.016;-2.260;2024-02-28T07:22:22;3.00;99.90
59307;DHT22;47983;53.016;-2.260;2024-02-28T07:24:50;3.00;99.90
59307;DHT22;47983;53.016;-2.260;2024-02-28T07:27:17;3.00;99.90
59307;DHT22;47983;53.016;-2.260;2024-02-28T07:29:45;3.10;99.90
59307;DHT22;47983;53.016;-2.260;2024-02-28T07:32:13;3.10;99.90
59307;DHT22;47983;53.016;-2.260;2024-02-28T07:34:40;3.10;99.90
59307;DHT22;47983;53.016;-2.260;2024-02-28T07:37:08;3.10;99.90
59307;DHT22;47983;53.016;-2.260;2024-02-28T07:39:36;3.10;99.90
59307;DHT22;47983;53.016;-2.260;2024-02-28T07:42:04;3.10;99.90
59307;DHT22;47983;53.016;-2.260;2024-02-28T07:44:31;3.20;99.90
59307;DHT22;47983;53.016;-2.260;2024-02-28T07:46:59;3.20;99.90
59307;DHT22;47983;53.016;-2.260;2024-02-28T07:49:27;3.30;99.90
59307;DHT22;47983;53.016;-2.260;2024-02-28T07:51:55;3.30;99.90
59307;DHT22;47983;53.016;-2.260;2024-02-28T07:54:24;3.30;99.90
59307;DHT22;47983;53.016;-2.260;2024-02-28T07:56:52;3.40;99.90
59307;DHT22;47983;53.016;-2.260;2024-02-28T07:59:21;3.40;99.90
59307;DHT22;47983;53.016;-2.260;2024-02-28T08:01:48;3.40;99.90
59307;DHT22;47983;53.016;-2.260;2024-02-28T08:04:16;3.50;99.90
59307;DHT22;47983;53.016;-2.260;2024-02-28T08:06:44;3.50;99.90
59307;DHT22;47983;53.016;-2.260;2024-02-28T08:09:12;3.50;99.90
59307;DHT22;47983;53.016;-2.260;2024-02-28T08:11:40;3.50;99.90
59307;DHT22;47983;53.016;-2.260;2024-02-28T08:14:09;3.60;99.90
59307;DHT22;47983;53.016;-2.260;2024-02-28T08:16:37;3.60;99.90
59307;DHT22;47983;53.016;-2.260;2024-02-28T08:19:05;3.60;99.90
59307;DHT22;47983;53.016;-2.260;2024-02-28T08:21:32;3.60;99.90
59307;DHT22;47983;53.016;-2.260;2024-02-28T08:24:00;3.70;99.90
59307;DHT22;47983;53.016;-2.260;2024-02-28T08:26:31;3.70;99.90
59307;DHT22;47983;53.016;-2.260;2024-02-28T08:28:59;3.70;99.90
59307;DHT22;47983;53.016;-2.260;2024-02-28T08:31:27;3.80;99.90
59307;DHT22;47983;53.016;-2.260;2024-02-28T08:33:55;3.80;99.90
59307;DHT22;47983;53.016;-2.260;2024-02-28T08:36:23;3.90;99.90
59307;DHT22;47983;53.016;-2.260;2024-02-28T08:38:51;3.90;99.90
59307;DHT22;47983;53.016;-2.260;2024-02-28T08:41:19;4.00;99.90
59307;DHT22;47983;53.016;-2.260;2024-02-28T08:43:47;4.00;99.90
59307;DHT22;47983;53.016;-2.260;2024-02-28T08:46:15;4.10;99.90
59307;DHT22;47983;53.016;-2.260;2024-02-28T08:48:46;4.20;99.90
59307;DHT22;47983;53.016;-2.260;2024-02-28T08:51:15;4.20;99.90
59307;DHT22;47983;53.016;-2.260;2024-02-28T08:53:42;4.30;99.90
59307;DHT22;47983;53.016;-2.260;2024-02-28T08:56:10;4.30;99.90
59307;DHT22;47983;53.016;-2.260;2024-02-28T08:58:37;4.40;99.90
59307;DHT22;47983;53.016;-2.260;2024-02-28T09:01:05;4.50;99.90
59307;DHT22;47983;53.016;-2.260;2024-02-28T09:03:33;4.50;99.90
59307;DHT22;47983;53.016;-2.260;2024-02-28T09:06:01;4.50;99.90
59307;DHT22;47983;53.016;-2.260;2024-02-28T09:08:28;4.60;99.90
59307;DHT22;47983;53.016;-2.260;2024-02-28T09:11:03;4.60;99.90
59307;DHT22;47983;53.016;-2.260;2024-02-28T09:13:33;4.70;99.90
59307;DHT22;47983;53.016;-2.260;2024-02-28T09:16:04;4.70;99.90
59307;DHT22;47983;53.016;-2.260;2024-02-28T09:18:31;4.70;99.90
59307;DHT22;47983;53.016;-2.260;2024-02-28T09:20:59;4.80;99.90
59307;DHT22;47983;53.016;-2.260;2024-02-28T09:23:27;4.90;99.90
59307;DHT22;47983;53.016;-2.260;2024-02-28T09:25:54;4.90;99.90
59307;DHT22;47983;53.016;-2.260;2024-02-28T09:28:23;4.90;99.90
59307;DHT22;47983;53.016;-2.260;2024-02-28T09:30:51;5.00;99.90
59307;DHT22;47983;53.016;-2.260;2024-02-28T09:33:21;4.90;99.90
59307;DHT22;47983;53.016;-2.260;2024-02-28T09:35:49;5.00;99.90
59307;DHT22;47983;53.016;-2.260;2024-02-28T09:38:17;5.00;99.90
59307;DHT22;47983;53.016;-2.260;2024-02-28T09:40:46;5.00;99.90
59307;DHT22;47983;53.016;-2.260;2024-02-28T09:43:19;5.00;99.90
59307;DHT22;47983;53.016;-2.260;2024-02-28T09:45:50;5.10;99.90
59307;DHT22;47983;53.016;-2.260;2024-02-28T09:48:18;5.10;99.90
59307;DHT22;47983;53.016;-2.260;2024-02-28T09:50:46;5.10;99.90
59307;DHT22;47983;53.016;-2.260;2024-02-28T09:53:14;5.20;99.90
59307;DHT22;47983;53.016;-2.260;2024-02-28T09:55:42;5.20;99.90
59307;DHT22;47983;53.016;-2.260;2024-02-28T09:58:10;5.20;99.90
59307;DHT22;47983;53.016;-2.260;2024-02-28T10:00:38;5.30;99.90
59307;DHT22;47983;53.016;-2.260;2024-02-28T10:03:06;5.30;99.90
59307;DHT22;47983;53.016;-2.260;2024-02-28T10:05:34;5.30;99.90
59307;DHT22;47983;53.016;-2.260;2024-02-28T10:08:02;5.30;99.90
59307;DHT22;47983;53.016;-2.260;2024-02-28T10:10:30;5.40;99.90
59307;DHT22;47983;53.016;-2.260;2024-02-28T10:12:58;5.40;99.90
59307;DHT22;47983;53.016;-2.260;2024-02-28T10:15:26;5.50;99.90
59307;DHT22;47983;53.016;-2.260;2024-02-28T10:17:54;5.50;99.90
59307;DHT22;47983;53.016;-2.260;2024-02-28T10:20:22;5.60;99.90
59307;DHT22;47983;53.016;-2.260;2024-02-28T10:22:51;5.60;99.90
59307;DHT22;47983;53.016;-2.260;2024-02-28T10:25:23;5.70;99.90
59307;DHT22;47983;53.016;-2.260;2024-02-28T10:27:51;5.80;99.90
59307;DHT22;47983;53.016;-2.260;2024-02-28T10:30:19;5.90;99.90
59307;DHT22;47983;53.016;-2.260;2024-02-28T10:32:48;6.00;99.90
59307;DHT22;47983;53.016;-2.260;2024-02-28T10:35:16;6.10;99.90
59307;DHT22;47983;53.016;-2.260;2024-02-28T10:37:49;6.10;99.90
59307;DHT22;47983;53.016;-2.260;2024-02-28T10:40:19;6.20;99.90
59307;DHT22;47983;53.016;-2.260;2024-02-28T10:42:47;6.30;99.90
59307;DHT22;47983;53.016;-2.260;2024-02-28T10:45:17;6.40;99.90
59307;DHT22;47983;53.016;-2.260;2024-02-28T10:48:02;6.40;99.90
59307;DHT22;47983;53.016;-2.260;2024-02-28T10:50:30;6.50;99.90
59307;DHT22;47983;53.016;-2.260;2024-02-28T10:53:04;6.50;99.90
59307;DHT22;47983;53.016;-2.260;2024-02-28T10:55:39;6.60;99.90
59307;DHT22;47983;53.016;-2.260;2024-02-28T10:58:07;6.60;99.90
59307;DHT22;47983;53.016;-2.260;2024-02-28T11:00:41;6.70;99.90
59307;DHT22;47983;53.016;-2.260;2024-02-28T11:03:12;6.70;99.90
59307;DHT22;47983;53.016;-2.260;2024-02-28T11:05:42;6.70;99.90
59307;DHT22;47983;53.016;-2.260;2024-02-28T11:08:21;6.70;99.90
59307;DHT22;47983;53.016;-2.260;2024-02-28T11:10:56;6.70;99.90
59307;DHT22;47983;53.016;-2.260;2024-02-28T11:13:25;6.70;99.90
59307;DHT22;47983;53.016;-2.260;2024-02-28T11:15:53;6.70;99.90
59307;DHT22;47983;53.016;-2.260;2024-02-28T11:18:23;6.70;99.90
59307;DHT22;47983;53.016;-2.260;2024-02-28T11:20:50;6.60;99.90
59307;DHT22;47983;53.016;-2.260;2024-02-28T11:23:18;6.60;99.90
59307;DHT22;47983;53.016;-2.260;2024-02-28T11:25:45;6.60;99.90
59307;DHT22;47983;53.016;-2.260;2024-02-28T11:28:14;6.60;99.90
59307;DHT22;47983;53.016;-2.260;2024-02-28T11:30:43;6.60;99.90
59307;DHT22;47983;53.016;-2.260;2024-02-28T11:33:12;6.60;99.90
59307;DHT22;47983;53.016;-2.260;2024-02-28T11:35:40;6.70;99.90
59307;DHT22;47983;53.016;-2.260;2024-02-28T11:38:08;6.70;99.90
59307;DHT22;47983;53.016;-2.260;2024-02-28T11:40:48;6.70;99.90
59307;DHT22;47983;53.016;-2.260;2024-02-28T11:43:15;6.70;99.90
59307;DHT22;47983;53.016;-2.260;2024-02-28T11:45:43;6.70;99.90
59307;DHT22;47983;53.016;-2.260;2024-02-28T11:48:12;6.70;99.90
59307;DHT22;47983;53.016;-2.260;2024-02-28T11:50:41;6.70;99.90
59307;DHT22;47983;53.016;-2.260;2024-02-28T11:53:11;6.80;99.90
59307;DHT22;47983;53.016;-2.260;2024-02-28T11:55:39;6.80;99.90
59307;DHT22;47983;53.016;-2.260;2024-02-28T11:58:09;6.80;99.90
59307;DHT22;47983;53.016;-2.260;2024-02-28T12:00:49;6.90;99.90
59307;DHT22;47983;53.016;-2.260;2024-02-28T12:03:20;7.00;99.90
59307;DHT22;47983;53.016;-2.260;2024-02-28T12:05:48;7.10;99.90
59307;DHT22;47983;53.016;-2.260;2024-02-28T12:08:17;7.20;99.90
59307;DHT22;47983;53.016;-2.260;2024-02-28T12:10:45;7.30;99.90
59307;DHT22;47983;53.016;-2.260;2024-02-28T12:13:16;7.40;99.90
59307;DHT22;47983;53.016;-2.260;2024-02-28T12:15:45;7.40;99.90
59307;DHT22;47983;53.016;-2.260;2024-02-28T12:18:15;7.50;99.90
59307;DHT22;47983;53.016;-2.260;2024-02-28T12:20:43;7.50;99.90
59307;DHT22;47983;53.016;-2.260;2024-02-28T12:23:12;7.60;99.90
59307;DHT22;47983;53.016;-2.260;2024-02-28T12:25:40;7.60;99.90
59307;DHT22;47983;53.016;-2.260;2024-02-28T12:28:08;7.70;99.90
59307;DHT22;47983;53.016;-2.260;2024-02-28T12:30:40;7.70;99.90
59307;DHT22;47983;53.016;-2.260;2024-02-28T12:33:13;7.70;99.90
59307;DHT22;47983;53.016;-2.260;2024-02-28T12:35:41;7.70;99.90
59307;DHT22;47983;53.016;-2.260;2024-02-28T12:38:09;7.70;99.90
59307;DHT22;47983;53.016;-2.260;2024-02-28T12:40:37;7.60;99.90
59307;DHT22;47983;53.016;-2.260;2024-02-28T12:43:04;7.60;99.90
59307;DHT22;47983;53.016;-2.260;2024-02-28T12:45:33;7.60;99.90
59307;DHT22;47983;53.016;-2.260;2024-02-28T12:48:01;7.60;99.90
59307;DHT22;47983;53.016;-2.260;2024-02-28T12:50:30;7.70;99.90
59307;DHT22;47983;53.016;-2.260;2024-02-28T12:52:58;7.80;99.90
59307;DHT22;47983;53.016;-2.260;2024-02-28T12:55:27;7.80;99.90
59307;DHT22;47983;53.016;-2.260;2024-02-28T12:57:57;7.90;99.90
59307;DHT22;47983;53.016;-2.260;2024-02-28T13:00:27;7.90;99.90
59307;DHT22;47983;53.016;-2.260;2024-02-28T13:02:55;7.90;99.90
59307;DHT22;47983;53.016;-2.260;2024-02-28T13:05:23;7.90;99.90
59307;DHT22;47983;53.016;-2.260;2024-02-28T13:07:50;8.00;99.90
59307;DHT22;47983;53.016;-2.260;2024-02-28T13:10:18;8.00;99.90
59307;DHT22;47983;53.016;-2.260;2024-02-28T13:12:45;8.00;99.90
59307;DHT22;47983;53.016;-2.260;2024-02-28T13:15:13;8.10;99.90
59307;DHT22;47983;53.016;-2.260;2024-02-28T13:17:46;8.10;99.90
59307;DHT22;47983;53.016;-2.260;2024-02-28T13:20:17;8.10;99.90
59307;DHT22;47983;53.016;-2.260;2024-02-28T13:22:45;8.10;99.90
59307;DHT22;47983;53.016;-2.260;2024-02-28T13:25:12;8.20;99.90
59307;DHT22;47983;53.016;-2.260;2024-02-28T13:27:41;8.20;99.90
59307;DHT22;47983;53.016;-2.260;2024-02-28T13:30:09;8.30;99.90
59307;DHT22;47983;53.016;-2.260;2024-02-28T13:32:37;8.30;99.90
59307;DHT22;47983;53.016;-2.260;2024-02-28T13:35:04;8.30;99.90
59307;DHT22;47983;53.016;-2.260;2024-02-28T13:37:32;8.30;99.90
59307;DHT22;47983;53.016;-2.260;2024-02-28T13:40:00;8.30;99.90
59307;DHT22;47983;53.016;-2.260;2024-02-28T13:42:29;8.30;99.90
59307;DHT22;47983;53.016;-2.260;2024-02-28T13:44:56;8.30;99.90
59307;DHT22;47983;53.016;-2.260;2024-02-28T13:47:27;8.40;99.90
59307;DHT22;47983;53.016;-2.260;2024-02-28T13:49:57;8.40;99.90
59307;DHT22;47983;53.016;-2.260;2024-02-28T13:52:26;8.40;99.90
59307;DHT22;47983;53.016;-2.260;2024-02-28T13:54:56;8.50;99.90
59307;DHT22;47983;53.016;-2.260;2024-02-28T13:57:23;8.50;99.90
59307;DHT22;47983;53.016;-2.260;2024-02-28T13:59:51;8.50;99.90
59307;DHT22;47983;53.016;-2.260;2024-02-28T14:02:21;8.50;99.90
59307;DHT22;47983;53.016;-2.260;2024-02-28T14:04:49;8.50;99.90
59307;DHT22;47983;53.016;-2.260;2024-02-28T14:07:17;8.50;99.90
59307;DHT22;47983;53.016;-2.260;2024-02-28T14:09:45;8.60;99.90
59307;DHT22;47983;53.016;-2.260;2024-02-28T14:12:13;8.60;99.90
59307;DHT22;47983;53.016;-2.260;2024-02-28T14:14:41;8.60;99.90
59307;DHT22;47983;53.016;-2.260;2024-02-28T14:17:09;8.70;99.90
59307;DHT22;47983;53.016;-2.260;2024-02-28T14:19:38;8.70;99.90
59307;DHT22;47983;53.016;-2.260;2024-02-28T14:22:11;8.70;99.90
59307;DHT22;47983;53.016;-2.260;2024-02-28T14:24:38;8.70;99.90
59307;DHT22;47983;53.016;-2.260;2024-02-28T14:27:07;8.70;99.90
59307;DHT22;47983;53.016;-2.260;2024-02-28T14:29:34;8.70;99.90
59307;DHT22;47983;53.016;-2.260;2024-02-28T14:32:02;8.70;99.90
59307;DHT22;47983;53.016;-2.260;2024-02-28T14:34:32;8.80;99.90
59307;DHT22;47983;53.016;-2.260;2024-02-28T14:37:00;8.80;99.90
59307;DHT22;47983;53.016;-2.260;2024-02-28T14:39:27;8.80;99.90
59307;DHT22;47983;53.016;-2.260;2024-02-28T14:41:58;8.90;99.90
59307;DHT22;47983;53.016;-2.260;2024-02-28T14:44:25;8.90;99.90
59307;DHT22;47983;53.016;-2.260;2024-02-28T14:46:53;8.90;99.90
59307;DHT22;47983;53.016;-2.260;2024-02-28T14:49:21;8.90;99.90
59307;DHT22;47983;53.016;-2.260;2024-02-28T14:51:49;8.90;99.90
59307;DHT22;47983;53.016;-2.260;2024-02-28T14:54:18;8.90;99.90
59307;DHT22;47983;53.016;-2.260;2024-02-28T14:56:50;8.90;99.90
59307;DHT22;47983;53.016;-2.260;2024-02-28T14:59:18;8.90;99.90
59307;DHT22;47983;53.016;-2.260;2024-02-28T15:01:45;8.90;99.90
59307;DHT22;47983;53.016;-2.260;2024-02-28T15:04:15;8.90;99.90
59307;DHT22;47983;53.016;-2.260;2024-02-28T15:06:43;8.90;99.90
59307;DHT22;47983;53.016;-2.260;2024-02-28T15:09:10;8.90;99.90
59307;DHT22;47983;53.016;-2.260;2024-02-28T15:11:38;8.90;99.90
59307;DHT22;47983;53.016;-2.260;2024-02-28T15:14:06;8.90;99.90
59307;DHT22;47983;53.016;-2.260;2024-02-28T15:16:34;8.90;99.90
59307;DHT22;47983;53.016;-2.260;2024-02-28T15:19:02;8.90;99.90
59307;DHT22;47983;53.016;-2.260;2024-02-28T15:21:33;8.90;99.90
59307;DHT22;47983;53.016;-2.260;2024-02-28T15:24:00;8.90;99.90
59307;DHT22;47983;53.016;-2.260;2024-02-28T15:26:29;8.90;99.90
59307;DHT22;47983;53.016;-2.260;2024-02-28T15:29:09;8.90;99.90
59307;DHT22;47983;53.016;-2.260;2024-02-28T15:31:37;9.00;99.90
59307;DHT22;47983;53.016;-2.260;2024-02-28T15:34:06;9.00;99.90
59307;DHT22;47983;53.016;-2.260;2024-02-28T15:36:33;8.90;99.90
59307;DHT22;47983;53.016;-2.260;2024-02-28T15:39:04;8.90;99.90